createdAt,value
2022-09-03T00:00:51.950Z,1.80
2022-09-03T00:03:19.905Z,1.97
2022-09-03T00:05:44.307Z,2.10
2022-09-03T00:08:10.063Z,1.90
2022-09-03T00:10:38.349Z,1.80
2022-09-03T00:13:02.895Z,2.00
2022-09-03T00:15:25.252Z,1.80
2022-09-03T00:17:49.327Z,2.10
2022-09-03T00:20:17.063Z,2.13
2022-09-03T00:22:40.891Z,2.10
2022-09-03T00:25:05.767Z,1.70
2022-09-03T00:27:28.419Z,1.90
2022-09-03T00:29:53.225Z,2.10
2022-09-03T00:32:17.098Z,2.03
2022-09-03T00:34:41.472Z,1.87
2022-09-03T00:37:04.218Z,1.90
2022-09-03T00:39:27.164Z,1.90
2022-09-03T00:42:00.034Z,1.87
2022-09-03T00:44:48.334Z,1.90
2022-09-03T00:47:13.738Z,2.10
2022-09-03T00:49:43.244Z,2.10
2022-09-03T00:52:11.382Z,1.60
2022-09-03T00:54:41.958Z,1.90
2022-09-03T00:57:17.384Z,1.90
2022-09-03T00:59:42.400Z,1.90
2022-09-03T01:02:11.898Z,2.10
2022-09-03T01:04:41.631Z,2.00
2022-09-03T01:07:14.268Z,1.73
2022-09-03T01:09:49.091Z,2.00
2022-09-03T01:12:15.799Z,2.07
2022-09-03T01:14:48.303Z,2.03
2022-09-03T01:17:16.153Z,2.10
2022-09-03T01:20:00.589Z,2.00
2022-09-03T01:23:00.762Z,1.73
2022-09-03T01:25:32.357Z,1.83
2022-09-03T01:28:06.828Z,1.90
2022-09-03T01:30:28.381Z,1.70
2022-09-03T01:32:53.925Z,1.80
2022-09-03T01:35:21.030Z,1.80
2022-09-03T01:37:49.902Z,2.20
2022-09-03T01:40:16.989Z,1.70
2022-09-03T01:42:49.565Z,1.97
2022-09-03T01:45:22.551Z,1.83
2022-09-03T01:47:53.299Z,1.93
2022-09-03T01:50:19.177Z,1.90
2022-09-03T01:52:47.808Z,1.97
2022-09-03T01:55:19.677Z,2.10
2022-09-03T01:57:47.209Z,1.80
2022-09-03T02:00:13.680Z,2.00
2022-09-03T02:02:37.026Z,2.20
2022-09-03T02:05:07.970Z,2.00
2022-09-03T02:07:34.825Z,1.83
2022-09-03T02:09:55.930Z,2.00
2022-09-03T02:12:18.654Z,2.10
2022-09-03T02:14:40.161Z,2.10
2022-09-03T02:17:02.687Z,2.33
2022-09-03T02:19:28.694Z,2.37
2022-09-03T02:21:53.688Z,2.23
2022-09-03T02:24:14.987Z,2.10
2022-09-03T02:26:36.882Z,2.00
2022-09-03T02:28:58.235Z,1.87
2022-09-03T02:31:19.754Z,1.90
2022-09-03T02:33:44.172Z,2.03
2022-09-03T02:36:09.234Z,1.80
2022-09-03T02:38:30.789Z,2.13
2022-09-03T02:40:52.091Z,2.13
2022-09-03T02:43:18.483Z,2.10
2022-09-03T02:45:43.876Z,2.13
2022-09-03T02:48:05.362Z,1.90
2022-09-03T02:50:27.276Z,2.17
2022-09-03T02:52:49.972Z,2.07
2022-09-03T02:55:11.561Z,1.90
2022-09-03T02:57:33.197Z,1.87
2022-09-03T02:59:54.372Z,2.07
2022-09-03T03:02:15.648Z,2.20
2022-09-03T03:04:37.209Z,2.10
2022-09-03T03:06:58.522Z,2.30
2022-09-03T03:09:21.467Z,2.23
2022-09-03T03:11:43.021Z,2.23
2022-09-03T03:14:04.718Z,2.10
2022-09-03T03:16:26.489Z,2.13
2022-09-03T03:18:47.992Z,2.20
2022-09-03T03:21:11.459Z,2.30
2022-09-03T03:23:33.328Z,2.07
2022-09-03T03:26:02.150Z,2.30
2022-09-03T03:28:23.909Z,2.10
2022-09-03T03:30:48.451Z,2.00
2022-09-03T03:33:10.154Z,2.27
2022-09-03T03:35:31.763Z,2.10
2022-09-03T03:37:52.921Z,2.10
2022-09-03T03:40:15.038Z,2.23
2022-09-03T03:42:38.165Z,2.17
2022-09-03T03:44:59.717Z,2.23
2022-09-03T03:47:20.886Z,2.50
2022-09-03T03:49:42.181Z,2.30
2022-09-03T03:52:04.430Z,2.20
2022-09-03T03:54:25.901Z,2.50
2022-09-03T03:56:56.465Z,2.20
2022-09-03T03:59:19.506Z,2.13
2022-09-03T04:01:40.869Z,2.27
2022-09-03T04:04:03.007Z,2.47
2022-09-03T04:06:24.737Z,2.33
2022-09-03T04:08:47.654Z,2.30
2022-09-03T04:11:12.835Z,2.40
2022-09-03T04:13:35.921Z,2.80
2022-09-03T04:16:03.337Z,2.43
2022-09-03T04:18:25.001Z,2.37
2022-09-03T04:20:46.745Z,2.33
2022-09-03T04:23:08.549Z,2.30
2022-09-03T04:25:29.885Z,2.57
2022-09-03T04:27:52.573Z,2.30
2022-09-03T04:30:14.465Z,2.53
2022-09-03T04:32:54.996Z,2.40
2022-09-03T04:35:16.369Z,2.53
2022-09-03T04:37:37.741Z,2.60
2022-09-03T04:39:59.179Z,2.70
2022-09-03T04:42:20.739Z,2.23
2022-09-03T04:44:42.046Z,2.33
2022-09-03T04:47:03.783Z,2.30
2022-09-03T04:49:26.849Z,2.10
2022-09-03T04:51:48.149Z,2.53
2022-09-03T04:54:10.255Z,2.40
2022-09-03T04:56:33.885Z,2.10
2022-09-03T04:58:57.201Z,2.30
2022-09-03T05:01:19.866Z,2.20
2022-09-03T05:03:41.614Z,2.27
2022-09-03T05:06:05.990Z,2.40
2022-09-03T05:08:28.931Z,2.50
2022-09-03T05:10:50.181Z,2.40
2022-09-03T05:13:16.530Z,2.70
2022-09-03T05:15:38.633Z,2.43
2022-09-03T05:18:01.909Z,2.40
2022-09-03T05:20:23.300Z,2.60
2022-09-03T05:22:46.046Z,2.20
2022-09-03T05:25:08.990Z,2.30
2022-09-03T05:27:30.453Z,2.40
2022-09-03T05:29:51.790Z,2.40
2022-09-03T05:32:13.685Z,2.50
2022-09-03T05:34:35.165Z,2.50
2022-09-03T05:36:58.538Z,2.50
2022-09-03T05:39:21.618Z,2.17
2022-09-03T05:41:42.757Z,2.13
2022-09-03T05:44:06.134Z,2.53
2022-09-03T05:46:31.813Z,2.40
2022-09-03T05:48:54.360Z,2.17
2022-09-03T05:51:17.085Z,2.37
2022-09-03T05:53:39.786Z,2.23
2022-09-03T05:56:05.999Z,2.43
2022-09-03T05:58:31.655Z,2.40
2022-09-03T06:00:53.105Z,2.30
2022-09-03T06:03:14.383Z,2.40
2022-09-03T06:05:36.107Z,2.00
2022-09-03T06:07:57.238Z,2.37
2022-09-03T06:10:22.362Z,2.40
2022-09-03T06:12:52.536Z,2.37
2022-09-03T06:15:13.689Z,2.33
2022-09-03T06:17:35.057Z,2.53
2022-09-03T06:19:56.258Z,2.17
2022-09-03T06:22:17.520Z,2.50
2022-09-03T06:24:39.079Z,2.43
2022-09-03T06:27:01.458Z,2.17
2022-09-03T06:29:24.013Z,2.60
2022-09-03T06:31:45.379Z,2.70
2022-09-03T06:34:07.228Z,2.80
2022-09-03T06:36:28.799Z,2.27
2022-09-03T06:38:52.978Z,2.67
2022-09-03T06:41:21.010Z,2.37
2022-09-03T06:43:43.572Z,2.50
2022-09-03T06:46:08.642Z,2.30
2022-09-03T06:48:31.901Z,2.50
2022-09-03T06:50:57.301Z,2.20
2022-09-03T06:53:18.841Z,2.70
2022-09-03T06:55:40.586Z,2.37
2022-09-03T06:58:01.773Z,2.63
2022-09-03T07:00:23.716Z,2.60
2022-09-03T07:02:48.746Z,3.00
2022-09-03T07:05:10.366Z,2.70
2022-09-03T07:07:33.253Z,2.43
2022-09-03T07:09:54.653Z,2.80
2022-09-03T07:12:18.271Z,2.60
2022-09-03T07:14:39.605Z,2.67
2022-09-03T07:17:00.943Z,2.73
2022-09-03T07:19:23.442Z,2.50
2022-09-03T07:21:49.633Z,3.00
2022-09-03T07:24:15.721Z,2.80
2022-09-03T07:26:39.699Z,2.60
2022-09-03T07:29:01.797Z,2.70
2022-09-03T07:31:26.042Z,2.80
2022-09-03T07:33:47.667Z,2.87
2022-09-03T07:36:12.286Z,2.97
2022-09-03T07:38:33.703Z,2.97
2022-09-03T07:40:59.761Z,2.80
2022-09-03T07:43:21.955Z,3.03
2022-09-03T07:45:45.930Z,3.10
2022-09-03T07:48:12.193Z,3.27
2022-09-03T07:50:39.175Z,3.17
2022-09-03T07:53:02.014Z,3.07
2022-09-03T07:55:23.441Z,3.17
2022-09-03T07:57:44.724Z,3.10
2022-09-03T08:00:08.095Z,3.23
2022-09-03T08:02:29.280Z,3.50
2022-09-03T08:04:50.421Z,2.90
2022-09-03T08:07:11.733Z,2.80
2022-09-03T08:09:34.217Z,3.13
2022-09-03T08:11:55.377Z,3.00
2022-09-03T08:14:16.557Z,3.13
2022-09-03T08:16:40.095Z,3.10
2022-09-03T08:19:01.735Z,3.20
2022-09-03T08:21:23.787Z,3.30
2022-09-03T08:23:46.642Z,3.20
2022-09-03T08:26:10.033Z,3.20
2022-09-03T08:28:34.329Z,3.40
2022-09-03T08:30:55.683Z,3.90
2022-09-03T08:33:16.889Z,3.10
2022-09-03T08:35:39.681Z,3.20
2022-09-03T08:38:05.384Z,3.00
2022-09-03T08:40:27.468Z,3.13
2022-09-03T08:43:04.873Z,3.30
2022-09-03T08:45:30.329Z,3.70
2022-09-03T08:48:00.108Z,3.17
2022-09-03T08:50:25.327Z,3.20
2022-09-03T08:52:48.986Z,3.60
2022-09-03T08:55:19.504Z,3.50
2022-09-03T08:57:44.285Z,3.70
2022-09-03T09:00:08.665Z,2.90
2022-09-03T09:02:43.288Z,3.40
2022-09-03T09:05:10.005Z,3.63
2022-09-03T09:07:39.027Z,3.40
2022-09-03T09:10:06.638Z,3.27
2022-09-03T09:12:42.792Z,3.37
2022-09-03T09:15:11.813Z,3.70
2022-09-03T09:17:47.157Z,3.50
2022-09-03T09:20:17.306Z,3.53
2022-09-03T09:22:40.558Z,3.17
2022-09-03T09:25:05.717Z,3.23
2022-09-03T09:27:27.167Z,3.30
2022-09-03T09:29:50.563Z,3.20
2022-09-03T09:32:15.722Z,3.03
2022-09-03T09:34:38.033Z,3.23
2022-09-03T09:36:59.434Z,3.00
2022-09-03T09:39:21.108Z,3.53
2022-09-03T09:41:43.206Z,2.73
2022-09-03T09:44:05.338Z,2.80
2022-09-03T09:46:28.529Z,2.90
2022-09-03T09:48:53.713Z,2.87
2022-09-03T09:51:20.560Z,2.80
2022-09-03T09:53:47.221Z,3.20
2022-09-03T09:56:09.761Z,3.00
2022-09-03T09:58:32.901Z,2.97
2022-09-03T10:01:00.375Z,2.93
2022-09-03T10:03:22.042Z,2.80
2022-09-03T10:05:45.746Z,2.87
2022-09-03T10:08:08.780Z,2.77
2022-09-03T10:10:35.436Z,2.90
2022-09-03T10:13:01.636Z,2.90
2022-09-03T10:15:28.659Z,2.90
2022-09-03T10:17:56.701Z,2.80
2022-09-03T10:20:28.270Z,2.70
2022-09-03T10:22:57.030Z,2.60
2022-09-03T10:25:20.906Z,2.70
2022-09-03T10:27:52.485Z,2.53
2022-09-03T10:30:16.125Z,2.73
2022-09-03T10:32:47.783Z,2.80
2022-09-03T10:35:16.258Z,2.40
2022-09-03T10:37:41.074Z,2.70
2022-09-03T10:40:13.014Z,3.10
2022-09-03T10:42:41.942Z,3.07
2022-09-03T10:45:09.961Z,3.00
2022-09-03T10:47:45.656Z,2.80
2022-09-03T10:50:16.483Z,3.17
2022-09-03T10:52:50.065Z,3.00
2022-09-03T10:55:27.019Z,2.93
2022-09-03T10:57:54.806Z,3.13
2022-09-03T11:00:18.223Z,2.97
2022-09-03T11:03:20.939Z,3.30
2022-09-03T11:05:48.056Z,3.00
2022-09-03T11:08:17.030Z,3.07
2022-09-03T11:10:42.522Z,3.40
2022-09-03T11:13:07.851Z,3.10
2022-09-03T11:15:34.257Z,3.10
2022-09-03T11:17:57.898Z,3.13
2022-09-03T11:20:21.870Z,3.20
2022-09-03T11:22:45.200Z,3.10
2022-09-03T11:25:08.697Z,3.20
2022-09-03T11:27:45.244Z,3.20
2022-09-03T11:30:08.366Z,2.90
2022-09-03T11:32:40.915Z,3.07
2022-09-03T11:35:02.068Z,3.10
2022-09-03T11:37:24.933Z,3.13
2022-09-03T11:39:49.178Z,3.40
2022-09-03T11:42:22.334Z,3.50
2022-09-03T11:44:51.472Z,3.40
2022-09-03T11:47:18.138Z,3.10
2022-09-03T11:49:47.005Z,3.37
2022-09-03T11:52:10.660Z,3.80
2022-09-03T11:54:33.891Z,3.80
2022-09-03T11:57:06.900Z,3.50
2022-09-03T11:59:28.220Z,3.70
2022-09-03T12:01:54.662Z,3.73
2022-09-03T12:04:18.189Z,3.47
2022-09-03T12:07:07.826Z,4.30
2022-09-03T12:10:04.857Z,5.13
2022-09-03T12:12:38.278Z,4.37
2022-09-03T12:15:05.188Z,4.03
2022-09-03T12:17:32.814Z,4.43
2022-09-03T12:19:55.969Z,4.77
2022-09-03T12:22:18.253Z,4.60
2022-09-03T12:24:39.448Z,3.47
2022-09-03T12:27:00.919Z,3.70
2022-09-03T12:29:27.501Z,2.37
2022-09-03T12:31:50.258Z,2.83
2022-09-03T12:34:16.729Z,3.03
2022-09-03T12:36:39.591Z,2.70
2022-09-03T12:39:12.434Z,2.90
2022-09-03T12:41:34.475Z,2.90
2022-09-03T12:43:57.612Z,2.53
2022-09-03T12:46:21.007Z,2.50
2022-09-03T12:51:49.807Z,2.50
2022-09-03T12:54:16.074Z,2.17
2022-09-03T12:56:42.536Z,2.30
2022-09-03T12:59:07.272Z,2.73
2022-09-03T13:01:31.414Z,2.17
2022-09-03T13:03:57.924Z,2.30
2022-09-03T13:06:22.057Z,2.20
2022-09-03T13:08:48.841Z,2.30
2022-09-03T13:11:10.427Z,2.50
2022-09-03T13:13:55.701Z,3.00
2022-09-03T13:16:32.274Z,2.60
2022-09-03T13:19:00.750Z,2.63
2022-09-03T13:21:33.177Z,2.30
2022-09-03T13:24:33.364Z,2.20
2022-09-03T13:27:03.636Z,2.10
2022-09-03T13:29:38.343Z,2.17
2022-09-03T13:32:06.252Z,2.40
2022-09-03T13:34:32.980Z,1.90
2022-09-03T13:36:58.327Z,1.83
2022-09-03T13:39:27.154Z,2.10
2022-09-03T13:41:53.342Z,2.10
2022-09-03T13:44:19.625Z,1.40
2022-09-03T13:46:47.437Z,1.60
2022-09-03T13:49:32.111Z,2.00
2022-09-03T13:51:57.843Z,1.93
2022-09-03T13:54:47.735Z,1.70
2022-09-03T13:57:08.436Z,1.70
2022-09-03T13:59:34.274Z,1.60
2022-09-03T14:02:28.680Z,1.77
2022-09-03T14:05:00.301Z,1.90
2022-09-03T14:07:26.265Z,2.00
2022-09-03T14:09:57.805Z,2.50
2022-09-03T14:12:23.875Z,1.60
2022-09-03T14:14:52.287Z,2.23
2022-09-03T14:17:16.631Z,1.80
2022-09-03T14:19:42.713Z,1.67
2022-09-03T14:22:08.815Z,1.27
2022-09-03T14:24:35.805Z,1.20
2022-09-03T14:27:00.544Z,1.27
2022-09-03T14:29:24.989Z,1.20
2022-09-03T14:32:20.288Z,1.10
2022-09-03T14:34:54.053Z,1.00
2022-09-03T14:37:25.521Z,1.20
2022-09-03T14:39:54.041Z,1.10
2022-09-03T14:42:59.016Z,1.20
2022-09-03T14:45:31.352Z,1.10
2022-09-03T14:48:06.565Z,1.17
2022-09-03T14:50:39.311Z,1.17
2022-09-03T14:53:13.219Z,1.20
2022-09-03T14:55:50.552Z,1.23
2022-09-03T14:58:24.470Z,1.00
2022-09-03T15:00:53.704Z,1.10
2022-09-03T15:03:45.262Z,1.10
2022-09-03T15:06:30.703Z,1.10
2022-09-03T15:09:03.378Z,1.10
2022-09-03T15:11:26.174Z,1.30
2022-09-03T15:13:52.930Z,1.10
2022-09-03T15:16:28.645Z,1.30
2022-09-03T15:19:01.875Z,1.00
2022-09-03T15:21:29.838Z,1.40
2022-09-03T15:23:58.193Z,1.70
2022-09-03T15:26:41.748Z,1.50
2022-09-03T15:29:28.121Z,1.50
2022-09-03T15:31:56.317Z,1.20
2022-09-03T15:34:44.054Z,1.10
2022-09-03T15:37:13.325Z,1.37
2022-09-03T15:39:36.427Z,1.20
2022-09-03T15:42:00.264Z,1.30
2022-09-03T15:44:23.491Z,1.10
2022-09-03T15:46:56.605Z,1.10
2022-09-03T15:49:25.697Z,1.40
2022-09-03T15:51:56.439Z,1.50
2022-09-03T15:54:25.263Z,1.07
2022-09-03T15:56:52.671Z,1.00
2022-09-03T15:59:17.805Z,1.10
2022-09-03T16:01:48.638Z,1.13
2022-09-03T16:04:20.702Z,1.20
2022-09-03T16:06:52.090Z,1.10
2022-09-03T16:09:23.648Z,1.20
2022-09-03T16:11:53.803Z,1.20
2022-09-03T16:14:18.729Z,1.57
2022-09-03T16:16:53.820Z,1.40
2022-09-03T16:19:18.830Z,1.20
2022-09-03T16:21:48.085Z,1.30
2022-09-03T16:24:16.851Z,1.50
2022-09-03T16:26:43.875Z,1.13
2022-09-03T16:29:09.502Z,1.20
2022-09-03T16:31:47.560Z,1.40
2022-09-03T16:34:18.670Z,1.30
2022-09-03T16:36:46.433Z,1.40
2022-09-03T16:39:15.858Z,1.40
2022-09-03T16:41:44.067Z,1.60
2022-09-03T16:44:10.600Z,1.50
2022-09-03T16:46:36.929Z,1.27
2022-09-03T16:49:11.768Z,1.30
2022-09-03T16:51:35.791Z,1.50
2022-09-03T16:54:08.474Z,1.40
2022-09-03T16:56:54.635Z,1.50
2022-09-03T16:59:27.456Z,1.53
2022-09-03T17:01:58.947Z,1.50
2022-09-03T17:04:46.568Z,1.30
2022-09-03T17:07:20.189Z,1.53
2022-09-03T17:09:54.224Z,1.40
2022-09-03T17:12:26.792Z,1.60
2022-09-03T17:15:18.409Z,1.63
2022-09-03T17:18:24.010Z,1.50
2022-09-03T17:20:57.342Z,1.30
2022-09-03T17:23:37.998Z,1.40
2022-09-03T17:26:05.519Z,1.43
2022-09-03T17:28:31.604Z,1.20
2022-09-03T17:30:58.034Z,1.47
2022-09-03T17:33:45.564Z,1.40
2022-09-03T17:36:12.693Z,1.30
2022-09-03T17:38:59.865Z,1.20
2022-09-03T17:41:30.013Z,1.23
2022-09-03T17:43:59.845Z,1.40
2022-09-03T17:46:29.717Z,1.70
2022-09-03T17:48:52.405Z,1.40
2022-09-03T17:51:25.786Z,1.60
2022-09-03T17:53:50.988Z,1.40
2022-09-03T17:56:20.169Z,1.60
2022-09-03T17:58:44.741Z,1.37
2022-09-03T18:01:14.220Z,1.60
2022-09-03T18:03:42.869Z,1.57
2022-09-03T18:06:07.657Z,1.50
2022-09-03T18:08:36.146Z,1.60
2022-09-03T18:11:07.371Z,1.50
2022-09-03T18:13:41.972Z,1.60
2022-09-03T18:16:07.815Z,2.90
2022-09-03T18:18:31.170Z,3.40
2022-09-03T18:21:24.289Z,3.33
2022-09-03T18:24:12.733Z,3.07
2022-09-03T18:26:55.811Z,3.03
2022-09-03T18:29:39.039Z,2.20
2022-09-03T18:32:18.463Z,2.40
2022-09-03T18:34:57.385Z,2.73
2022-09-03T18:37:40.117Z,2.20
2022-09-03T18:40:20.750Z,2.30
2022-09-03T18:43:10.222Z,2.97
2022-09-03T18:46:45.973Z,2.30
2022-09-03T18:48:55.322Z,3.90
2022-09-03T18:51:44.311Z,2.30
2022-09-03T18:54:56.936Z,2.83
2022-09-03T18:57:38.569Z,2.40
2022-09-03T19:00:28.771Z,2.50
2022-09-03T19:03:21.515Z,2.10
2022-09-03T19:06:07.393Z,2.67
2022-09-03T19:08:50.889Z,2.50
2022-09-03T19:11:40.952Z,4.37
2022-09-03T19:14:27.763Z,5.00
2022-09-03T19:17:12.860Z,4.10
2022-09-03T19:20:15.922Z,4.20
2022-09-03T19:22:56.472Z,3.60
2022-09-03T19:25:35.958Z,3.50
2022-09-03T19:28:21.800Z,3.70
2022-09-03T19:31:09.976Z,2.70
2022-09-03T19:33:54.762Z,3.10
2022-09-03T19:36:40.517Z,2.53
2022-09-03T19:39:32.421Z,2.43
2022-09-03T19:42:16.274Z,2.43
2022-09-03T19:45:04.026Z,2.00
2022-09-03T19:48:04.766Z,2.23
2022-09-03T19:50:47.829Z,2.40
2022-09-03T19:53:29.074Z,2.37
2022-09-03T19:56:12.214Z,2.60
2022-09-03T19:58:52.637Z,2.50
2022-09-03T20:01:32.016Z,2.70
2022-09-03T20:04:13.786Z,2.50
2022-09-03T20:06:53.766Z,2.83
2022-09-03T20:09:35.941Z,2.50
2022-09-03T20:12:03.197Z,2.33
2022-09-03T20:14:27.098Z,2.40
2022-09-03T20:17:09.743Z,2.40
2022-09-03T20:19:38.605Z,4.13
2022-09-03T20:22:07.974Z,3.90
2022-09-03T20:24:40.031Z,3.47
2022-09-03T20:27:06.022Z,3.03
2022-09-03T20:29:54.674Z,3.07
2022-09-03T20:32:29.297Z,3.00
2022-09-03T20:34:57.406Z,3.37
2022-09-03T20:37:27.420Z,3.40
2022-09-03T20:39:59.692Z,3.67
2022-09-03T20:42:38.729Z,3.47
2022-09-03T20:45:06.673Z,3.53
2022-09-03T20:48:00.420Z,3.83
2022-09-03T20:50:28.061Z,3.60
2022-09-03T20:52:57.358Z,6.03
2022-09-03T20:55:22.318Z,6.77
2022-09-03T20:57:48.621Z,5.80
2022-09-03T21:00:12.666Z,4.50
2022-09-03T21:03:03.666Z,4.60
2022-09-03T21:05:31.421Z,4.23
2022-09-03T21:08:00.554Z,4.40
2022-09-03T21:10:26.258Z,3.50
2022-09-03T21:12:54.285Z,3.37
2022-09-03T21:15:20.515Z,2.90
2022-09-03T21:17:51.550Z,2.80
2022-09-03T21:20:19.845Z,3.20
2022-09-03T21:22:52.754Z,2.90
2022-09-03T21:25:16.609Z,3.10
2022-09-03T21:27:41.005Z,3.10
2022-09-03T21:30:05.164Z,3.33
2022-09-03T21:32:33.579Z,3.43
2022-09-03T21:35:06.187Z,3.57
2022-09-03T21:37:28.234Z,3.60
2022-09-03T21:39:54.580Z,3.40
2022-09-03T21:42:20.026Z,3.33
2022-09-03T21:44:52.012Z,3.47
2022-09-03T21:47:14.814Z,3.63
2022-09-03T21:49:41.018Z,3.43
2022-09-03T21:52:04.374Z,3.77
2022-09-03T21:54:29.369Z,3.60
2022-09-03T21:57:14.841Z,3.10
2022-09-03T21:59:53.159Z,3.60
2022-09-03T22:02:21.674Z,3.50
2022-09-03T22:04:43.224Z,3.50
2022-09-03T22:07:09.542Z,3.53
2022-09-03T22:09:34.671Z,3.57
2022-09-03T22:11:59.566Z,3.30
2022-09-03T22:14:24.709Z,3.60
2022-09-03T22:16:48.880Z,3.80
2022-09-03T22:19:10.544Z,3.70
2022-09-03T22:21:35.929Z,3.70
2022-09-03T22:24:07.477Z,3.90
2022-09-03T22:26:39.154Z,3.90
2022-09-03T22:29:06.805Z,3.80
2022-09-03T22:31:35.467Z,3.07
2022-09-03T22:34:00.265Z,3.60
2022-09-03T22:36:25.556Z,3.67
2022-09-03T22:39:04.811Z,3.67
2022-09-03T22:41:36.269Z,3.97
2022-09-03T22:44:05.670Z,4.20
2022-09-03T22:46:31.320Z,4.60
2022-09-03T22:49:07.095Z,3.97
2022-09-03T22:51:33.700Z,4.30
2022-09-03T22:54:04.104Z,3.90
2022-09-03T22:56:25.581Z,3.90
2022-09-03T22:58:53.832Z,4.20
2022-09-03T23:01:19.504Z,3.87
2022-09-03T23:03:46.102Z,3.67
2022-09-03T23:06:11.577Z,4.13
2022-09-03T23:08:36.475Z,4.40
2022-09-03T23:11:03.925Z,4.20
2022-09-03T23:13:27.958Z,4.13
2022-09-03T23:16:00.422Z,4.30
2022-09-03T23:18:26.990Z,4.20
2022-09-03T23:20:55.988Z,4.00
2022-09-03T23:23:20.527Z,4.30
2022-09-03T23:25:44.537Z,5.10
2022-09-03T23:28:11.042Z,4.27
2022-09-03T23:30:32.554Z,4.90
2022-09-03T23:32:56.667Z,5.33
2022-09-03T23:35:19.508Z,4.80
2022-09-03T23:37:55.198Z,5.00
2022-09-03T23:40:35.529Z,5.13
2022-09-03T23:43:20.950Z,4.27
2022-09-03T23:45:46.074Z,4.97
2022-09-03T23:48:14.885Z,5.30
2022-09-03T23:50:41.011Z,4.50
2022-09-03T23:53:19.496Z,4.87
2022-09-03T23:55:52.371Z,4.70
2022-09-03T23:58:26.081Z,4.53
